sensor_id;sensor_type;location;lat;lon;timestamp;temperature;humidity
2571;DHT22;1295;51.130;6.732;2023-04-06T00:00:23;9.90;99.90
2571;DHT22;1295;51.130;6.732;2023-04-06T00:02:49;9.80;99.90
2571;DHT22;1295;51.130;6.732;2023-04-06T00:05:14;9.80;99.90
2571;DHT22;1295;51.130;6.732;2023-04-06T00:07:43;9.80;99.90
2571;DHT22;1295;51.130;6.732;2023-04-06T00:10:09;9.80;99.90
2571;DHT22;1295;51.130;6.732;2023-04-06T00:12:35;9.80;99.90
2571;DHT22;1295;51.130;6.732;2023-04-06T00:15:01;9.70;99.90
2571;DHT22;1295;51.130;6.732;2023-04-06T00:17:27;9.70;99.90
2571;DHT22;1295;51.130;6.732;2023-04-06T00:19:53;9.70;99.90
2571;DHT22;1295;51.130;6.732;2023-04-06T00:22:19;9.70;99.90
2571;DHT22;1295;51.130;6.732;2023-04-06T00:24:45;9.70;99.90
2571;DHT22;1295;51.130;6.732;2023-04-06T00:27:12;9.70;99.90
2571;DHT22;1295;51.130;6.732;2023-04-06T00:29:36;9.60;99.90
2571;DHT22;1295;51.130;6.732;2023-04-06T00:32:03;9.60;99.90
2571;DHT22;1295;51.130;6.732;2023-04-06T00:34:29;9.60;99.90
2571;DHT22;1295;51.130;6.732;2023-04-06T00:36:54;9.60;99.90
2571;DHT22;1295;51.130;6.732;2023-04-06T00:39:20;9.60;99.90
2571;DHT22;1295;51.130;6.732;2023-04-06T00:41:46;9.60;99.90
2571;DHT22;1295;51.130;6.732;2023-04-06T00:44:16;9.50;99.90
2571;DHT22;1295;51.130;6.732;2023-04-06T00:46:42;9.50;99.90
2571;DHT22;1295;51.130;6.732;2023-04-06T00:49:08;9.50;99.90
2571;DHT22;1295;51.130;6.732;2023-04-06T00:51:34;9.50;99.90
2571;DHT22;1295;51.130;6.732;2023-04-06T00:53:59;9.50;99.90
2571;DHT22;1295;51.130;6.732;2023-04-06T00:56:26;9.40;99.90
2571;DHT22;1295;51.130;6.732;2023-04-06T00:58:51;9.40;99.90
2571;DHT22;1295;51.130;6.732;2023-04-06T01:01:18;9.40;99.90
2571;DHT22;1295;51.130;6.732;2023-04-06T01:03:44;9.40;99.90
2571;DHT22;1295;51.130;6.732;2023-04-06T01:06:10;9.40;99.90
2571;DHT22;1295;51.130;6.732;2023-04-06T01:08:36;9.30;99.90
2571;DHT22;1295;51.130;6.732;2023-04-06T01:11:02;9.30;99.90
2571;DHT22;1295;51.130;6.732;2023-04-06T01:13:28;9.30;99.90
2571;DHT22;1295;51.130;6.732;2023-04-06T01:15:54;9.30;99.90
2571;DHT22;1295;51.130;6.732;2023-04-06T01:18:25;9.30;99.90
2571;DHT22;1295;51.130;6.732;2023-04-06T01:20:45;9.30;99.90
2571;DHT22;1295;51.130;6.732;2023-04-06T01:23:11;9.30;99.90
2571;DHT22;1295;51.130;6.732;2023-04-06T01:25:37;9.20;99.90
2571;DHT22;1295;51.130;6.732;2023-04-06T01:28:03;9.20;99.90
2571;DHT22;1295;51.130;6.732;2023-04-06T01:30:28;9.20;99.90
2571;DHT22;1295;51.130;6.732;2023-04-06T01:32:54;9.20;99.90
2571;DHT22;1295;51.130;6.732;2023-04-06T01:35:21;9.20;99.90
2571;DHT22;1295;51.130;6.732;2023-04-06T01:37:51;9.20;99.90
2571;DHT22;1295;51.130;6.732;2023-04-06T01:40:28;9.20;99.90
2571;DHT22;1295;51.130;6.732;2023-04-06T01:42:53;9.10;99.90
2571;DHT22;1295;51.130;6.732;2023-04-06T01:45:19;9.10;99.90
2571;DHT22;1295;51.130;6.732;2023-04-06T01:47:45;9.10;99.90
2571;DHT22;1295;51.130;6.732;2023-04-06T01:50:11;9.10;99.90
2571;DHT22;1295;51.130;6.732;2023-04-06T01:52:38;9.00;99.90
2571;DHT22;1295;51.130;6.732;2023-04-06T01:55:04;9.10;99.90
2571;DHT22;1295;51.130;6.732;2023-04-06T01:57:30;9.00;99.90
2571;DHT22;1295;51.130;6.732;2023-04-06T01:59:56;9.00;99.90
2571;DHT22;1295;51.130;6.732;2023-04-06T02:02:22;9.00;99.90
2571;DHT22;1295;51.130;6.732;2023-04-06T02:04:48;9.00;99.90
2571;DHT22;1295;51.130;6.732;2023-04-06T02:07:13;9.00;99.90
2571;DHT22;1295;51.130;6.732;2023-04-06T02:09:39;8.90;99.90
2571;DHT22;1295;51.130;6.732;2023-04-06T02:12:05;8.90;99.90
2571;DHT22;1295;51.130;6.732;2023-04-06T02:14:31;8.90;99.90
2571;DHT22;1295;51.130;6.732;2023-04-06T02:16:56;8.90;99.90
2571;DHT22;1295;51.130;6.732;2023-04-06T02:19:22;8.90;99.90
2571;DHT22;1295;51.130;6.732;2023-04-06T02:21:48;8.90;99.90
2571;DHT22;1295;51.130;6.732;2023-04-06T02:24:13;8.90;99.90
2571;DHT22;1295;51.130;6.732;2023-04-06T02:26:39;8.90;99.90
2571;DHT22;1295;51.130;6.732;2023-04-06T02:29:05;8.80;99.90
2571;DHT22;1295;51.130;6.732;2023-04-06T02:31:30;8.80;99.90
2571;DHT22;1295;51.130;6.732;2023-04-06T02:33:56;8.80;99.90
2571;DHT22;1295;51.130;6.732;2023-04-06T02:36:22;8.80;99.90
2571;DHT22;1295;51.130;6.732;2023-04-06T02:38:47;8.70;99.90
2571;DHT22;1295;51.130;6.732;2023-04-06T02:41:14;8.70;99.90
2571;DHT22;1295;51.130;6.732;2023-04-06T02:43:40;8.70;99.90
2571;DHT22;1295;51.130;6.732;2023-04-06T02:46:05;8.70;99.90
2571;DHT22;1295;51.130;6.732;2023-04-06T02:48:31;8.70;99.90
2571;DHT22;1295;51.130;6.732;2023-04-06T02:50:57;8.70;99.90
2571;DHT22;1295;51.130;6.732;2023-04-06T02:53:23;8.60;99.90
2571;DHT22;1295;51.130;6.732;2023-04-06T02:55:49;8.60;99.90
2571;DHT22;1295;51.130;6.732;2023-04-06T02:58:15;8.60;99.90
2571;DHT22;1295;51.130;6.732;2023-04-06T03:00:41;8.60;99.90
2571;DHT22;1295;51.130;6.732;2023-04-06T03:03:07;8.60;99.90
2571;DHT22;1295;51.130;6.732;2023-04-06T03:05:33;8.60;99.90
2571;DHT22;1295;51.130;6.732;2023-04-06T03:08:00;8.60;99.90
2571;DHT22;1295;51.130;6.732;2023-04-06T03:10:25;8.50;99.90
2571;DHT22;1295;51.130;6.732;2023-04-06T03:12:51;8.50;99.90
2571;DHT22;1295;51.130;6.732;2023-04-06T03:15:17;8.50;99.90
2571;DHT22;1295;51.130;6.732;2023-04-06T03:17:43;8.50;99.90
2571;DHT22;1295;51.130;6.732;2023-04-06T03:20:09;8.50;99.90
2571;DHT22;1295;51.130;6.732;2023-04-06T03:22:35;8.50;99.90
2571;DHT22;1295;51.130;6.732;2023-04-06T03:25:01;8.50;99.90
2571;DHT22;1295;51.130;6.732;2023-04-06T03:27:26;8.40;99.90
2571;DHT22;1295;51.130;6.732;2023-04-06T03:29:52;8.40;99.90
2571;DHT22;1295;51.130;6.732;2023-04-06T03:32:18;8.40;99.90
2571;DHT22;1295;51.130;6.732;2023-04-06T03:34:44;8.40;99.90
2571;DHT22;1295;51.130;6.732;2023-04-06T03:37:09;8.40;99.90
2571;DHT22;1295;51.130;6.732;2023-04-06T03:39:35;8.40;99.90
2571;DHT22;1295;51.130;6.732;2023-04-06T03:42:01;8.40;99.90
2571;DHT22;1295;51.130;6.732;2023-04-06T03:44:27;8.30;99.90
2571;DHT22;1295;51.130;6.732;2023-04-06T03:46:53;8.30;99.90
2571;DHT22;1295;51.130;6.732;2023-04-06T03:49:20;8.30;99.90
2571;DHT22;1295;51.130;6.732;2023-04-06T03:51:46;8.30;99.90
2571;DHT22;1295;51.130;6.732;2023-04-06T03:54:12;8.30;99.90
2571;DHT22;1295;51.130;6.732;2023-04-06T03:56:38;8.30;99.90
2571;DHT22;1295;51.130;6.732;2023-04-06T03:59:04;8.30;99.90
2571;DHT22;1295;51.130;6.732;2023-04-06T04:01:30;8.20;99.90
2571;DHT22;1295;51.130;6.732;2023-04-06T04:03:56;8.20;99.90
2571;DHT22;1295;51.130;6.732;2023-04-06T04:06:22;8.20;99.90
2571;DHT22;1295;51.130;6.732;2023-04-06T04:08:49;8.20;99.90
2571;DHT22;1295;51.130;6.732;2023-04-06T04:11:14;8.20;99.90
2571;DHT22;1295;51.130;6.732;2023-04-06T04:13:40;8.20;99.90
2571;DHT22;1295;51.130;6.732;2023-04-06T04:16:06;8.10;99.90
2571;DHT22;1295;51.130;6.732;2023-04-06T04:18:32;8.10;99.90
2571;DHT22;1295;51.130;6.732;2023-04-06T04:20:58;8.10;99.90
2571;DHT22;1295;51.130;6.732;2023-04-06T04:23:23;8.10;99.90
2571;DHT22;1295;51.130;6.732;2023-04-06T04:25:49;8.10;99.90
2571;DHT22;1295;51.130;6.732;2023-04-06T04:28:15;8.10;99.90
2571;DHT22;1295;51.130;6.732;2023-04-06T04:30:41;8.10;99.90
2571;DHT22;1295;51.130;6.732;2023-04-06T04:33:06;8.10;99.90
2571;DHT22;1295;51.130;6.732;2023-04-06T04:35:32;8.10;99.90
2571;DHT22;1295;51.130;6.732;2023-04-06T04:37:58;8.10;99.90
2571;DHT22;1295;51.130;6.732;2023-04-06T04:40:23;8.00;99.90
2571;DHT22;1295;51.130;6.732;2023-04-06T04:42:49;8.00;99.90
2571;DHT22;1295;51.130;6.732;2023-04-06T04:45:15;8.00;99.90
2571;DHT22;1295;51.130;6.732;2023-04-06T04:47:40;8.00;99.90
2571;DHT22;1295;51.130;6.732;2023-04-06T04:50:07;8.00;99.90
2571;DHT22;1295;51.130;6.732;2023-04-06T04:52:33;8.00;99.90
2571;DHT22;1295;51.130;6.732;2023-04-06T04:54:58;7.90;99.90
2571;DHT22;1295;51.130;6.732;2023-04-06T04:57:25;7.90;99.90
2571;DHT22;1295;51.130;6.732;2023-04-06T04:59:51;7.90;99.90
2571;DHT22;1295;51.130;6.732;2023-04-06T05:02:17;7.90;99.90
2571;DHT22;1295;51.130;6.732;2023-04-06T05:04:43;7.90;99.90
2571;DHT22;1295;51.130;6.732;2023-04-06T05:07:08;7.90;99.90
2571;DHT22;1295;51.130;6.732;2023-04-06T05:09:34;7.90;99.90
2571;DHT22;1295;51.130;6.732;2023-04-06T05:12:00;7.80;99.90
2571;DHT22;1295;51.130;6.732;2023-04-06T05:14:27;7.80;99.90
2571;DHT22;1295;51.130;6.732;2023-04-06T05:16:53;7.80;99.90
2571;DHT22;1295;51.130;6.732;2023-04-06T05:19:19;7.80;99.90
2571;DHT22;1295;51.130;6.732;2023-04-06T05:21:45;7.80;99.90
2571;DHT22;1295;51.130;6.732;2023-04-06T05:24:11;7.80;99.90
2571;DHT22;1295;51.130;6.732;2023-04-06T05:26:37;7.70;99.90
2571;DHT22;1295;51.130;6.732;2023-04-06T05:29:03;7.80;99.90
2571;DHT22;1295;51.130;6.732;2023-04-06T05:31:28;7.70;99.90
2571;DHT22;1295;51.130;6.732;2023-04-06T05:33:54;7.70;99.90
2571;DHT22;1295;51.130;6.732;2023-04-06T05:36:20;7.70;99.90
2571;DHT22;1295;51.130;6.732;2023-04-06T05:38:45;7.70;99.90
2571;DHT22;1295;51.130;6.732;2023-04-06T05:41:11;7.70;99.90
2571;DHT22;1295;51.130;6.732;2023-04-06T05:43:37;7.70;99.90
2571;DHT22;1295;51.130;6.732;2023-04-06T05:46:03;7.70;99.90
2571;DHT22;1295;51.130;6.732;2023-04-06T05:48:29;7.70;99.90
2571;DHT22;1295;51.130;6.732;2023-04-06T05:50:55;7.40;99.90
2571;DHT22;1295;51.130;6.732;2023-04-06T05:53:20;7.50;99.90
2571;DHT22;1295;51.130;6.732;2023-04-06T05:55:46;7.50;99.90
2571;DHT22;1295;51.130;6.732;2023-04-06T05:58:12;7.50;99.90
2571;DHT22;1295;51.130;6.732;2023-04-06T06:00:38;7.40;99.90
2571;DHT22;1295;51.130;6.732;2023-04-06T06:03:03;7.30;99.90
2571;DHT22;1295;51.130;6.732;2023-04-06T06:05:29;7.50;99.90
2571;DHT22;1295;51.130;6.732;2023-04-06T06:07:55;7.50;99.90
2571;DHT22;1295;51.130;6.732;2023-04-06T06:10:20;7.50;99.90
2571;DHT22;1295;51.130;6.732;2023-04-06T06:12:46;7.50;99.90
2571;DHT22;1295;51.130;6.732;2023-04-06T06:15:12;7.30;99.90
2571;DHT22;1295;51.130;6.732;2023-04-06T06:17:38;7.40;99.90
2571;DHT22;1295;51.130;6.732;2023-04-06T06:20:06;7.30;99.90
2571;DHT22;1295;51.130;6.732;2023-04-06T06:22:32;7.30;99.90
2571;DHT22;1295;51.130;6.732;2023-04-06T06:24:58;7.50;99.90
2571;DHT22;1295;51.130;6.732;2023-04-06T06:27:24;7.50;99.90
2571;DHT22;1295;51.130;6.732;2023-04-06T06:29:49;7.50;99.90
2571;DHT22;1295;51.130;6.732;2023-04-06T06:32:15;7.20;99.90
2571;DHT22;1295;51.130;6.732;2023-04-06T06:34:41;7.30;99.90
2571;DHT22;1295;51.130;6.732;2023-04-06T06:37:07;7.20;99.90
2571;DHT22;1295;51.130;6.732;2023-04-06T06:39:33;7.50;99.90
2571;DHT22;1295;51.130;6.732;2023-04-06T06:41:59;7.50;99.90
2571;DHT22;1295;51.130;6.732;2023-04-06T06:44:24;7.40;99.90
2571;DHT22;1295;51.130;6.732;2023-04-06T06:46:50;7.00;99.90
2571;DHT22;1295;51.130;6.732;2023-04-06T06:49:16;6.80;99.90
2571;DHT22;1295;51.130;6.732;2023-04-06T06:51:43;7.10;99.90
2571;DHT22;1295;51.130;6.732;2023-04-06T06:54:09;7.10;99.90
2571;DHT22;1295;51.130;6.732;2023-04-06T06:56:34;7.40;99.90
2571;DHT22;1295;51.130;6.732;2023-04-06T06:59:00;7.00;99.90
2571;DHT22;1295;51.130;6.732;2023-04-06T07:01:26;7.10;99.90
2571;DHT22;1295;51.130;6.732;2023-04-06T07:03:51;7.40;99.90
2571;DHT22;1295;51.130;6.732;2023-04-06T07:06:18;7.40;99.90
2571;DHT22;1295;51.130;6.732;2023-04-06T07:08:43;7.40;99.90
2571;DHT22;1295;51.130;6.732;2023-04-06T07:11:09;7.50;99.90
2571;DHT22;1295;51.130;6.732;2023-04-06T07:13:36;7.50;99.90
2571;DHT22;1295;51.130;6.732;2023-04-06T07:16:02;7.60;99.90
2571;DHT22;1295;51.130;6.732;2023-04-06T07:18:28;7.50;99.90
2571;DHT22;1295;51.130;6.732;2023-04-06T07:20:54;7.20;99.90
2571;DHT22;1295;51.130;6.732;2023-04-06T07:23:19;7.30;99.90
2571;DHT22;1295;51.130;6.732;2023-04-06T07:25:46;7.50;99.90
2571;DHT22;1295;51.130;6.732;2023-04-06T07:28:12;7.50;99.90
2571;DHT22;1295;51.130;6.732;2023-04-06T07:30:38;7.60;99.90
2571;DHT22;1295;51.130;6.732;2023-04-06T07:33:04;7.60;99.90
2571;DHT22;1295;51.130;6.732;2023-04-06T07:35:30;7.60;99.90
2571;DHT22;1295;51.130;6.732;2023-04-06T07:37:56;7.70;99.90
2571;DHT22;1295;51.130;6.732;2023-04-06T07:40:22;7.70;99.90
2571;DHT22;1295;51.130;6.732;2023-04-06T07:42:48;7.50;99.90
2571;DHT22;1295;51.130;6.732;2023-04-06T07:45:14;7.50;99.90
2571;DHT22;1295;51.130;6.732;2023-04-06T07:47:40;7.70;99.90
2571;DHT22;1295;51.130;6.732;2023-04-06T07:50:06;7.60;99.90
2571;DHT22;1295;51.130;6.732;2023-04-06T07:52:32;7.80;99.90
2571;DHT22;1295;51.130;6.732;2023-04-06T07:54:58;7.80;99.90
2571;DHT22;1295;51.130;6.732;2023-04-06T07:57:23;7.70;99.90
2571;DHT22;1295;51.130;6.732;2023-04-06T07:59:49;7.90;99.90
2571;DHT22;1295;51.130;6.732;2023-04-06T08:02:15;7.90;99.90
2571;DHT22;1295;51.130;6.732;2023-04-06T08:04:41;8.30;99.90
2571;DHT22;1295;51.130;6.732;2023-04-06T08:07:06;8.30;99.90
2571;DHT22;1295;51.130;6.732;2023-04-06T08:09:32;8.20;99.90
2571;DHT22;1295;51.130;6.732;2023-04-06T08:11:58;8.20;99.90
2571;DHT22;1295;51.130;6.732;2023-04-06T08:14:23;8.10;99.90
2571;DHT22;1295;51.130;6.732;2023-04-06T08:16:49;8.20;99.90
2571;DHT22;1295;51.130;6.732;2023-04-06T08:19:15;8.10;99.90
2571;DHT22;1295;51.130;6.732;2023-04-06T08:21:40;8.20;99.90
2571;DHT22;1295;51.130;6.732;2023-04-06T08:24:06;8.40;99.90
2571;DHT22;1295;51.130;6.732;2023-04-06T08:26:32;8.50;99.90
2571;DHT22;1295;51.130;6.732;2023-04-06T08:28:58;8.40;99.90
2571;DHT22;1295;51.130;6.732;2023-04-06T08:31:23;8.50;99.90
2571;DHT22;1295;51.130;6.732;2023-04-06T08:33:50;8.50;99.90
2571;DHT22;1295;51.130;6.732;2023-04-06T08:36:15;8.50;99.90
2571;DHT22;1295;51.130;6.732;2023-04-06T08:38:42;8.50;99.90
2571;DHT22;1295;51.130;6.732;2023-04-06T08:41:09;8.50;99.90
2571;DHT22;1295;51.130;6.732;2023-04-06T08:43:36;8.60;99.90
2571;DHT22;1295;51.130;6.732;2023-04-06T08:46:01;8.70;99.90
2571;DHT22;1295;51.130;6.732;2023-04-06T08:48:26;8.60;99.90
2571;DHT22;1295;51.130;6.732;2023-04-06T08:50:53;8.70;99.90
2571;DHT22;1295;51.130;6.732;2023-04-06T08:53:19;8.90;99.90
2571;DHT22;1295;51.130;6.732;2023-04-06T08:55:45;8.90;99.90
2571;DHT22;1295;51.130;6.732;2023-04-06T08:58:11;9.00;99.90
2571;DHT22;1295;51.130;6.732;2023-04-06T09:00:38;9.00;99.90
2571;DHT22;1295;51.130;6.732;2023-04-06T09:03:03;9.00;99.90
2571;DHT22;1295;51.130;6.732;2023-04-06T09:05:29;9.10;99.90
2571;DHT22;1295;51.130;6.732;2023-04-06T09:07:55;9.10;99.90
2571;DHT22;1295;51.130;6.732;2023-04-06T09:10:22;9.40;99.90
2571;DHT22;1295;51.130;6.732;2023-04-06T09:12:47;9.40;99.90
2571;DHT22;1295;51.130;6.732;2023-04-06T09:15:19;9.40;99.90
2571;DHT22;1295;51.130;6.732;2023-04-06T09:17:44;9.70;99.90
2571;DHT22;1295;51.130;6.732;2023-04-06T09:20:11;9.30;99.90
2571;DHT22;1295;51.130;6.732;2023-04-06T09:22:38;9.30;99.90
2571;DHT22;1295;51.130;6.732;2023-04-06T09:25:04;9.20;99.90
2571;DHT22;1295;51.130;6.732;2023-04-06T09:27:32;9.80;99.90
2571;DHT22;1295;51.130;6.732;2023-04-06T09:30:03;10.30;99.90
2571;DHT22;1295;51.130;6.732;2023-04-06T09:32:28;9.70;99.90
2571;DHT22;1295;51.130;6.732;2023-04-06T09:34:54;9.70;99.90
2571;DHT22;1295;51.130;6.732;2023-04-06T09:37:20;9.70;99.90
2571;DHT22;1295;51.130;6.732;2023-04-06T09:39:45;9.70;99.90
2571;DHT22;1295;51.130;6.732;2023-04-06T09:42:22;9.70;99.90
2571;DHT22;1295;51.130;6.732;2023-04-06T09:44:37;9.20;99.90
2571;DHT22;1295;51.130;6.732;2023-04-06T09:47:04;9.60;99.90
2571;DHT22;1295;51.130;6.732;2023-04-06T09:49:29;9.40;99.90
2571;DHT22;1295;51.130;6.732;2023-04-06T09:51:58;9.60;99.90
2571;DHT22;1295;51.130;6.732;2023-04-06T09:54:22;10.00;99.90
2571;DHT22;1295;51.130;6.732;2023-04-06T09:59:50;10.00;99.90
2571;DHT22;1295;51.130;6.732;2023-04-06T10:02:20;10.40;99.90
2571;DHT22;1295;51.130;6.732;2023-04-06T10:04:43;10.40;99.90
2571;DHT22;1295;51.130;6.732;2023-04-06T10:07:09;10.90;99.90
2571;DHT22;1295;51.130;6.732;2023-04-06T10:09:36;11.50;99.90
2571;DHT22;1295;51.130;6.732;2023-04-06T10:12:05;11.50;99.90
2571;DHT22;1295;51.130;6.732;2023-04-06T10:14:32;11.40;99.90
2571;DHT22;1295;51.130;6.732;2023-04-06T10:16:57;12.30;99.90
2571;DHT22;1295;51.130;6.732;2023-04-06T10:19:24;12.20;99.90
2571;DHT22;1295;51.130;6.732;2023-04-06T10:21:48;11.80;99.90
2571;DHT22;1295;51.130;6.732;2023-04-06T10:24:14;12.50;99.90
2571;DHT22;1295;51.130;6.732;2023-04-06T10:26:40;12.00;99.90
2571;DHT22;1295;51.130;6.732;2023-04-06T10:29:05;12.30;99.90
2571;DHT22;1295;51.130;6.732;2023-04-06T10:31:31;12.40;99.90
2571;DHT22;1295;51.130;6.732;2023-04-06T10:33:58;12.70;99.90
2571;DHT22;1295;51.130;6.732;2023-04-06T10:36:24;12.80;99.90
2571;DHT22;1295;51.130;6.732;2023-04-06T10:38:53;12.80;99.90
2571;DHT22;1295;51.130;6.732;2023-04-06T10:41:16;12.20;99.90
2571;DHT22;1295;51.130;6.732;2023-04-06T10:43:41;11.50;99.90
2571;DHT22;1295;51.130;6.732;2023-04-06T10:46:08;11.50;99.90
2571;DHT22;1295;51.130;6.732;2023-04-06T10:48:40;12.30;99.90
2571;DHT22;1295;51.130;6.732;2023-04-06T10:51:07;12.50;99.90
2571;DHT22;1295;51.130;6.732;2023-04-06T10:53:30;12.50;99.90
2571;DHT22;1295;51.130;6.732;2023-04-06T10:55:56;12.30;99.90
2571;DHT22;1295;51.130;6.732;2023-04-06T10:58:25;12.10;99.90
2571;DHT22;1295;51.130;6.732;2023-04-06T11:00:50;11.90;99.90
2571;DHT22;1295;51.130;6.732;2023-04-06T11:03:16;11.60;99.90
2571;DHT22;1295;51.130;6.732;2023-04-06T11:05:45;12.10;99.90
2571;DHT22;1295;51.130;6.732;2023-04-06T11:08:10;12.20;99.90
2571;DHT22;1295;51.130;6.732;2023-04-06T11:10:36;11.90;99.90
2571;DHT22;1295;51.130;6.732;2023-04-06T11:13:02;11.90;99.90
2571;DHT22;1295;51.130;6.732;2023-04-06T11:15:33;12.10;99.90
2571;DHT22;1295;51.130;6.732;2023-04-06T11:17:54;12.10;99.90
2571;DHT22;1295;51.130;6.732;2023-04-06T11:20:20;12.40;99.90
2571;DHT22;1295;51.130;6.732;2023-04-06T11:22:48;12.10;99.90
2571;DHT22;1295;51.130;6.732;2023-04-06T11:25:13;11.60;99.90
2571;DHT22;1295;51.130;6.732;2023-04-06T11:27:39;11.80;99.90
2571;DHT22;1295;51.130;6.732;2023-04-06T11:30:06;11.80;99.90
2571;DHT22;1295;51.130;6.732;2023-04-06T11:32:39;12.10;99.90
2571;DHT22;1295;51.130;6.732;2023-04-06T11:34:58;11.80;99.90
2571;DHT22;1295;51.130;6.732;2023-04-06T11:37:25;12.00;99.90
2571;DHT22;1295;51.130;6.732;2023-04-06T11:39:51;11.80;99.90
2571;DHT22;1295;51.130;6.732;2023-04-06T11:42:21;11.80;99.90
2571;DHT22;1295;51.130;6.732;2023-04-06T11:44:49;11.80;99.90
2571;DHT22;1295;51.130;6.732;2023-04-06T11:47:12;11.50;99.90
2571;DHT22;1295;51.130;6.732;2023-04-06T11:49:40;11.50;99.90
2571;DHT22;1295;51.130;6.732;2023-04-06T11:52:14;11.90;99.90
2571;DHT22;1295;51.130;6.732;2023-04-06T11:54:33;12.30;99.90
2571;DHT22;1295;51.130;6.732;2023-04-06T11:56:59;12.50;99.90
2571;DHT22;1295;51.130;6.732;2023-04-06T11:59:26;12.30;99.90
2571;DHT22;1295;51.130;6.732;2023-04-06T12:01:51;12.30;99.90
2571;DHT22;1295;51.130;6.732;2023-04-06T12:04:17;11.80;99.90
2571;DHT22;1295;51.130;6.732;2023-04-06T12:06:43;11.90;99.90
2571;DHT22;1295;51.130;6.732;2023-04-06T12:09:10;12.00;99.90
2571;DHT22;1295;51.130;6.732;2023-04-06T12:11:36;12.10;99.90
2571;DHT22;1295;51.130;6.732;2023-04-06T12:14:02;12.10;99.90
2571;DHT22;1295;51.130;6.732;2023-04-06T12:16:28;12.30;99.90
2571;DHT22;1295;51.130;6.732;2023-04-06T12:18:53;12.10;99.90
2571;DHT22;1295;51.130;6.732;2023-04-06T12:21:24;11.90;99.90
2571;DHT22;1295;51.130;6.732;2023-04-06T12:23:55;11.90;99.90
2571;DHT22;1295;51.130;6.732;2023-04-06T12:26:20;11.90;99.90
2571;DHT22;1295;51.130;6.732;2023-04-06T12:28:46;11.80;99.90
2571;DHT22;1295;51.130;6.732;2023-04-06T12:31:14;11.80;99.90
2571;DHT22;1295;51.130;6.732;2023-04-06T12:33:39;11.80;99.90
2571;DHT22;1295;51.130;6.732;2023-04-06T12:36:10;11.80;99.90
2571;DHT22;1295;51.130;6.732;2023-04-06T12:38:31;11.80;99.90
2571;DHT22;1295;51.130;6.732;2023-04-06T12:40:57;11.70;99.90
2571;DHT22;1295;51.130;6.732;2023-04-06T12:43:23;11.70;99.90
2571;DHT22;1295;51.130;6.732;2023-04-06T12:45:49;11.80;99.90
2571;DHT22;1295;51.130;6.732;2023-04-06T12:48:15;11.60;99.90
2571;DHT22;1295;51.130;6.732;2023-04-06T12:50:42;11.70;99.90
2571;DHT22;1295;51.130;6.732;2023-04-06T12:53:07;11.70;99.90
2571;DHT22;1295;51.130;6.732;2023-04-06T12:55:33;11.70;99.90
2571;DHT22;1295;51.130;6.732;2023-04-06T12:57:59;11.70;99.90
2571;DHT22;1295;51.130;6.732;2023-04-06T13:00:25;11.60;99.90
2571;DHT22;1295;51.130;6.732;2023-04-06T13:02:51;11.60;99.90
2571;DHT22;1295;51.130;6.732;2023-04-06T13:05:17;11.50;99.90
2571;DHT22;1295;51.130;6.732;2023-04-06T13:07:42;11.40;99.90
2571;DHT22;1295;51.130;6.732;2023-04-06T13:10:08;11.50;99.90
2571;DHT22;1295;51.130;6.732;2023-04-06T13:12:34;11.30;99.90
2571;DHT22;1295;51.130;6.732;2023-04-06T13:15:00;11.20;99.90
2571;DHT22;1295;51.130;6.732;2023-04-06T13:17:26;11.40;99.90
2571;DHT22;1295;51.130;6.732;2023-04-06T13:19:51;11.40;99.90
2571;DHT22;1295;51.130;6.732;2023-04-06T13:22:17;11.50;99.90
2571;DHT22;1295;51.130;6.732;2023-04-06T13:24:43;11.60;99.90
2571;DHT22;1295;51.130;6.732;2023-04-06T13:27:08;11.50;99.90
2571;DHT22;1295;51.130;6.732;2023-04-06T13:29:34;11.40;99.90
2571;DHT22;1295;51.130;6.732;2023-04-06T13:32:01;11.30;99.90
2571;DHT22;1295;51.130;6.732;2023-04-06T13:34:26;11.30;99.90
2571;DHT22;1295;51.130;6.732;2023-04-06T13:36:52;11.10;99.90
2571;DHT22;1295;51.130;6.732;2023-04-06T13:39:21;11.10;99.90
2571;DHT22;1295;51.130;6.732;2023-04-06T13:41:46;11.10;99.90
2571;DHT22;1295;51.130;6.732;2023-04-06T13:44:13;11.00;99.90
2571;DHT22;1295;51.130;6.732;2023-04-06T13:46:39;10.90;99.90
2571;DHT22;1295;51.130;6.732;2023-04-06T13:49:05;11.00;99.90
2571;DHT22;1295;51.130;6.732;2023-04-06T13:51:31;11.00;99.90
2571;DHT22;1295;51.130;6.732;2023-04-06T13:53:57;11.00;99.90
2571;DHT22;1295;51.130;6.732;2023-04-06T13:56:23;11.00;99.90
2571;DHT22;1295;51.130;6.732;2023-04-06T13:58:48;11.00;99.90
2571;DHT22;1295;51.130;6.732;2023-04-06T14:01:14;11.10;99.90
2571;DHT22;1295;51.130;6.732;2023-04-06T14:03:40;11.00;99.90
2571;DHT22;1295;51.130;6.732;2023-04-06T14:06:12;10.80;99.90
2571;DHT22;1295;51.130;6.732;2023-04-06T14:08:38;10.90;99.90
2571;DHT22;1295;51.130;6.732;2023-04-06T14:11:04;11.10;99.90
2571;DHT22;1295;51.130;6.732;2023-04-06T14:13:30;11.10;99.90
2571;DHT22;1295;51.130;6.732;2023-04-06T14:15:55;10.90;99.90
2571;DHT22;1295;51.130;6.732;2023-04-06T14:18:22;10.90;99.90
2571;DHT22;1295;51.130;6.732;2023-04-06T14:20:54;10.80;99.90
2571;DHT22;1295;51.130;6.732;2023-04-06T14:23:24;10.80;99.90
2571;DHT22;1295;51.130;6.732;2023-04-06T14:26:04;10.60;99.90
2571;DHT22;1295;51.130;6.732;2023-04-06T14:28:30;10.60;99.90
2571;DHT22;1295;51.130;6.732;2023-04-06T14:30:55;10.60;99.90
2571;DHT22;1295;51.130;6.732;2023-04-06T14:33:21;10.60;99.90
2571;DHT22;1295;51.130;6.732;2023-04-06T14:35:47;10.60;99.90
2571;DHT22;1295;51.130;6.732;2023-04-06T14:38:12;10.40;99.90
2571;DHT22;1295;51.130;6.732;2023-04-06T14:40:38;10.30;99.90
2571;DHT22;1295;51.130;6.732;2023-04-06T14:43:04;10.40;99.90
2571;DHT22;1295;51.130;6.732;2023-04-06T14:45:32;10.50;99.90
2571;DHT22;1295;51.130;6.732;2023-04-06T14:47:55;10.40;99.90
2571;DHT22;1295;51.130;6.732;2023-04-06T14:50:21;10.10;99.90
2571;DHT22;1295;51.130;6.732;2023-04-06T14:52:46;10.00;99.90
2571;DHT22;1295;51.130;6.732;2023-04-06T14:55:12;10.10;99.90
2571;DHT22;1295;51.130;6.732;2023-04-06T14:57:38;10.20;99.90
2571;DHT22;1295;51.130;6.732;2023-04-06T15:00:05;10.20;99.90
2571;DHT22;1295;51.130;6.732;2023-04-06T15:02:32;10.20;99.90
2571;DHT22;1295;51.130;6.732;2023-04-06T15:04:56;10.00;99.90
2571;DHT22;1295;51.130;6.732;2023-04-06T15:07:22;10.00;99.90
2571;DHT22;1295;51.130;6.732;2023-04-06T15:09:48;10.00;99.90
2571;DHT22;1295;51.130;6.732;2023-04-06T15:12:14;10.00;99.90
2571;DHT22;1295;51.130;6.732;2023-04-06T15:14:47;10.00;99.90
2571;DHT22;1295;51.130;6.732;2023-04-06T15:17:12;10.10;99.90
2571;DHT22;1295;51.130;6.732;2023-04-06T15:19:38;10.00;99.90
2571;DHT22;1295;51.130;6.732;2023-04-06T15:22:04;10.00;99.90
2571;DHT22;1295;51.130;6.732;2023-04-06T15:24:29;10.00;99.90
2571;DHT22;1295;51.130;6.732;2023-04-06T15:26:55;10.00;99.90
2571;DHT22;1295;51.130;6.732;2023-04-06T15:29:21;10.10;99.90
2571;DHT22;1295;51.130;6.732;2023-04-06T15:31:46;9.90;99.90
2571;DHT22;1295;51.130;6.732;2023-04-06T15:34:13;10.00;99.90
2571;DHT22;1295;51.130;6.732;2023-04-06T15:36:38;10.00;99.90
2571;DHT22;1295;51.130;6.732;2023-04-06T15:39:04;10.00;99.90
2571;DHT22;1295;51.130;6.732;2023-04-06T15:41:30;10.10;99.90
2571;DHT22;1295;51.130;6.732;2023-04-06T15:43:55;9.80;99.90
2571;DHT22;1295;51.130;6.732;2023-04-06T15:46:22;9.90;99.90
2571;DHT22;1295;51.130;6.732;2023-04-06T15:48:47;9.90;99.90
2571;DHT22;1295;51.130;6.732;2023-04-06T15:51:13;9.70;99.90
2571;DHT22;1295;51.130;6.732;2023-04-06T15:53:38;9.70;99.90
2571;DHT22;1295;51.130;6.732;2023-04-06T15:56:05;9.60;99.90
2571;DHT22;1295;51.130;6.732;2023-04-06T15:58:32;9.60;99.90
2571;DHT22;1295;51.130;6.732;2023-04-06T16:00:57;9.60;99.90
2571;DHT22;1295;51.130;6.732;2023-04-06T16:03:23;9.80;99.90
2571;DHT22;1295;51.130;6.732;2023-04-06T16:05:48;9.70;99.90